Time;durP1;ratioP1;P1;durP2;ratioP2;P2;SDS_P1;SDS_P2;PMS_P1;PMS_P2;Temp;Humidity;BMP_temperature;BMP_pressure;BME280_temperature;BME280_humidity;BME280_pressure;Samples;Min_cycle;Max_cycle;Signal;HPM_P1;HPM_P2
2021/08/22 00:00:30;;;;;;;8.10;3.28;;;;;;;;;;4997875;28;20037;-54
2021/08/22 00:02:56;;;;;;;9.38;3.70;;;;;;;;;;5003514;28;20045;-54
2021/08/22 00:05:22;;;;;;;9.00;3.55;;;;;;;;;;5013649;28;20065;-51
2021/08/22 00:07:48;;;;;;;6.38;3.13;;;;;;;;;;5013680;28;20048;-55
2021/08/22 00:10:14;;;;;;;9.88;3.60;;;;;;;;;;5013359;28;20045;-54
2021/08/22 00:12:40;;;;;;;5.80;3.08;;;;;;;;;;5014356;28;20041;-56
2021/08/22 00:15:06;;;;;;;6.70;2.78;;;;;;;;;;5015365;28;20845;-57
2021/08/22 00:17:32;;;;;;;5.40;2.63;;;;;;;;;;5014155;28;20168;-57
2021/08/22 00:19:58;;;;;;;6.28;2.70;;;;;;;;;;5015450;28;20052;-57
2021/08/22 00:22:23;;;;;;;5.88;2.33;;;;;;;;;;5013421;28;20057;-54
2021/08/22 00:24:49;;;;;;;5.75;2.40;;;;;;;;;;5015102;28;20065;-54
2021/08/22 00:27:15;;;;;;;6.32;2.33;;;;;;;;;;5015031;28;20065;-55
2021/08/22 00:29:41;;;;;;;5.88;2.42;;;;;;;;;;5013885;28;20474;-54
2021/08/22 00:32:07;;;;;;;5.38;2.22;;;;;;;;;;5013603;28;20112;-55
2021/08/22 00:34:33;;;;;;;5.22;2.28;;;;;;;;;;5013938;28;20520;-54
2021/08/22 00:36:59;;;;;;;5.80;2.45;;;;;;;;;;5016266;28;20037;-56
2021/08/22 00:39:25;;;;;;;5.88;2.47;;;;;;;;;;5014032;28;20567;-54
2021/08/22 00:41:51;;;;;;;4.63;2.00;;;;;;;;;;5015047;28;20038;-54
2021/08/22 00:44:17;;;;;;;5.53;2.20;;;;;;;;;;5014819;28;20763;-55
2021/08/22 00:46:43;;;;;;;4.47;1.83;;;;;;;;;;4994452;28;20064;-57
2021/08/22 00:49:10;;;;;;;6.30;2.08;;;;;;;;;;5001088;28;20419;-56
2021/08/22 00:51:36;;;;;;;6.93;2.10;;;;;;;;;;4993281;28;20092;-56
2021/08/22 00:54:02;;;;;;;8.20;2.00;;;;;;;;;;5009048;28;20470;-52
2021/08/22 00:56:28;;;;;;;6.00;2.10;;;;;;;;;;5014063;28;20115;-56
2021/08/22 00:58:54;;;;;;;4.63;1.95;;;;;;;;;;4997463;28;20041;-55
2021/08/22 01:01:24;;;;;;;6.40;2.03;;;;;;;;;;5005537;28;20088;-56
2021/08/22 01:03:59;;;;;;;5.30;2.10;;;;;;;;;;5005637;28;20038;-55
2021/08/22 01:06:44;;;;;;;6.57;2.08;;;;;;;;;;4997008;28;20077;-55
2021/08/22 01:09:14;;;;;;;4.78;2.28;;;;;;;;;;5000678;28;20153;-55
2021/08/22 01:11:41;;;;;;;6.18;2.25;;;;;;;;;;5011245;28;20057;-53
2021/08/22 01:14:11;;;;;;;4.78;1.95;;;;;;;;;;4997207;28;20735;-57
2021/08/22 01:16:38;;;;;;;4.93;2.22;;;;;;;;;;4990845;28;20188;-57
2021/08/22 01:19:16;;;;;;;5.30;2.00;;;;;;;;;;5001009;28;20490;-56
2021/08/22 01:21:42;;;;;;;6.40;2.00;;;;;;;;;;4993712;28;20046;-57
2021/08/22 01:24:08;;;;;;;5.22;1.75;;;;;;;;;;4993854;28;20134;-56
2021/08/22 01:26:38;;;;;;;5.53;2.00;;;;;;;;;;4998709;28;20979;-57
2021/08/22 01:29:05;;;;;;;6.03;2.30;;;;;;;;;;4998575;28;20037;-54
2021/08/22 01:31:49;;;;;;;4.65;1.98;;;;;;;;;;4997387;28;20081;-56
2021/08/22 01:34:16;;;;;;;7.03;2.90;;;;;;;;;;4999163;28;20225;-54
2021/08/22 01:36:42;;;;;;;5.05;1.92;;;;;;;;;;4998155;28;22086;-56
2021/08/22 01:39:09;;;;;;;5.45;2.10;;;;;;;;;;4998053;28;20790;-56
2021/08/22 01:41:35;;;;;;;5.22;2.00;;;;;;;;;;4996682;28;20406;-58
2021/08/22 01:44:01;;;;;;;5.35;1.92;;;;;;;;;;4998239;28;20068;-57
2021/08/22 01:46:31;;;;;;;7.72;2.10;;;;;;;;;;4996570;28;20053;-56
2021/08/22 01:48:57;;;;;;;6.20;2.35;;;;;;;;;;4998066;28;20703;-57
2021/08/22 01:51:29;;;;;;;4.30;1.83;;;;;;;;;;4997315;28;20132;-54
2021/08/22 01:53:59;;;;;;;4.93;2.17;;;;;;;;;;4997997;28;20048;-56
2021/08/22 01:56:25;;;;;;;5.30;2.08;;;;;;;;;;4997156;28;20052;-55
2021/08/22 01:58:51;;;;;;;5.68;2.60;;;;;;;;;;4995847;28;20051;-53
2021/08/22 02:01:17;;;;;;;6.55;2.20;;;;;;;;;;4996461;28;20045;-55
2021/08/22 02:03:49;;;;;;;7.53;2.97;;;;;;;;;;5000276;28;20472;-53
2021/08/22 02:06:18;;;;;;;5.07;2.25;;;;;;;;;;5017587;28;20115;-51
2021/08/22 02:08:46;;;;;;;4.70;1.92;;;;;;;;;;4999360;28;20041;-53
2021/08/22 02:11:18;;;;;;;6.80;2.00;;;;;;;;;;5001977;28;20494;-54
2021/08/22 02:13:45;;;;;;;5.50;2.15;;;;;;;;;;4997810;28;20906;-53
2021/08/22 02:16:12;;;;;;;5.18;2.00;;;;;;;;;;5003891;28;20038;-53
2021/08/22 02:18:39;;;;;;;5.30;2.00;;;;;;;;;;4996482;28;20053;-52
2021/08/22 02:21:05;;;;;;;6.03;2.25;;;;;;;;;;4993611;28;20168;-53
2021/08/22 02:23:31;;;;;;;5.55;2.00;;;;;;;;;;4990501;28;20460;-52
2021/08/22 02:25:59;;;;;;;5.88;2.30;;;;;;;;;;4999707;28;20060;-54
2021/08/22 02:28:25;;;;;;;5.22;1.85;;;;;;;;;;5006470;28;20038;-54
2021/08/22 02:30:51;;;;;;;5.78;1.98;;;;;;;;;;4996592;28;22043;-54
2021/08/22 02:33:17;;;;;;;5.22;1.80;;;;;;;;;;4991971;28;20045;-54
2021/08/22 02:35:43;;;;;;;5.75;2.22;;;;;;;;;;5014894;28;20136;-55
2021/08/22 02:38:09;;;;;;;5.40;2.30;;;;;;;;;;5009651;28;20119;-54
2021/08/22 02:40:35;;;;;;;4.95;1.85;;;;;;;;;;5011376;28;20564;-55
2021/08/22 02:43:01;;;;;;;6.70;2.50;;;;;;;;;;5010617;28;20053;-54
2021/08/22 02:45:28;;;;;;;5.93;2.15;;;;;;;;;;5010607;28;20053;-55
2021/08/22 02:47:57;;;;;;;5.57;2.30;;;;;;;;;;5009627;28;20522;-52
2021/08/22 02:50:24;;;;;;;4.47;2.13;;;;;;;;;;5010242;28;20049;-54
2021/08/22 02:52:50;;;;;;;5.30;2.15;;;;;;;;;;5013277;28;20103;-56
2021/08/22 02:55:15;;;;;;;5.22;2.00;;;;;;;;;;5015048;28;20398;-56
2021/08/22 02:57:42;;;;;;;4.10;1.58;;;;;;;;;;5014020;28;20036;-56
2021/08/22 03:00:09;;;;;;;4.65;2.03;;;;;;;;;;5016426;28;20083;-56
2021/08/22 03:02:35;;;;;;;5.45;2.25;;;;;;;;;;5014113;28;20037;-56
2021/08/22 03:05:00;;;;;;;6.25;2.05;;;;;;;;;;5015782;28;20042;-56
2021/08/22 03:07:26;;;;;;;5.20;2.10;;;;;;;;;;5013917;28;20041;-52
2021/08/22 03:09:52;;;;;;;4.50;1.63;;;;;;;;;;5015153;28;20275;-56
2021/08/22 03:12:18;;;;;;;4.15;1.58;;;;;;;;;;5014172;28;20085;-55
2021/08/22 03:14:43;;;;;;;5.03;1.50;;;;;;;;;;5004148;28;20050;-55
2021/08/22 03:17:09;;;;;;;5.10;2.17;;;;;;;;;;4999590;28;20407;-55
2021/08/22 03:19:35;;;;;;;4.50;1.60;;;;;;;;;;5002793;28;20069;-55
2021/08/22 03:22:01;;;;;;;4.57;1.83;;;;;;;;;;4995168;28;20101;-53
2021/08/22 03:24:27;;;;;;;4.20;1.60;;;;;;;;;;4999197;28;20036;-56
2021/08/22 03:26:53;;;;;;;5.93;2.20;;;;;;;;;;4998914;28;21949;-54
2021/08/22 03:29:18;;;;;;;6.45;2.10;;;;;;;;;;4997056;28;20046;-54
2021/08/22 03:31:44;;;;;;;5.28;1.88;;;;;;;;;;4994259;28;20112;-54
2021/08/22 03:34:10;;;;;;;4.28;1.73;;;;;;;;;;4995983;28;20042;-54
2021/08/22 03:36:37;;;;;;;5.15;1.95;;;;;;;;;;4995663;28;20172;-55
2021/08/22 03:39:04;;;;;;;5.50;1.70;;;;;;;;;;4997099;28;20034;-55
2021/08/22 03:41:30;;;;;;;4.75;1.67;;;;;;;;;;4994734;28;20102;-55
2021/08/22 03:43:56;;;;;;;4.35;1.50;;;;;;;;;;4997693;28;20040;-55
2021/08/22 03:46:21;;;;;;;4.13;1.63;;;;;;;;;;4995757;28;20058;-56
2021/08/22 03:48:47;;;;;;;4.82;1.60;;;;;;;;;;4998876;28;20040;-56
2021/08/22 03:51:13;;;;;;;4.30;1.88;;;;;;;;;;5015860;28;20158;-53
2021/08/22 03:53:39;;;;;;;4.35;1.70;;;;;;;;;;5002861;28;20144;-56
2021/08/22 03:56:05;;;;;;;3.60;1.55;;;;;;;;;;5000869;28;20502;-56
2021/08/22 03:58:30;;;;;;;5.30;2.10;;;;;;;;;;4990703;28;20049;-55
2021/08/22 04:00:56;;;;;;;4.93;2.00;;;;;;;;;;5006293;28;20403;-56
2021/08/22 04:03:23;;;;;;;4.75;1.63;;;;;;;;;;4999050;28;20084;-56
2021/08/22 04:05:49;;;;;;;3.95;1.50;;;;;;;;;;5002723;28;20379;-53
2021/08/22 04:08:15;;;;;;;5.10;2.00;;;;;;;;;;5011601;28;20515;-56
2021/08/22 04:10:41;;;;;;;4.40;1.77;;;;;;;;;;5012927;28;20586;-54
2021/08/22 04:13:07;;;;;;;4.57;2.05;;;;;;;;;;5014920;28;20120;-54
2021/08/22 04:15:33;;;;;;;4.18;1.88;;;;;;;;;;5014787;28;20459;-57
2021/08/22 04:17:59;;;;;;;4.63;1.70;;;;;;;;;;5014419;28;20054;-56
2021/08/22 04:20:24;;;;;;;5.10;1.83;;;;;;;;;;5015225;28;20029;-55
2021/08/22 04:22:50;;;;;;;4.15;1.63;;;;;;;;;;5015204;28;20056;-56
2021/08/22 04:25:16;;;;;;;4.38;1.92;;;;;;;;;;5013560;28;20531;-57
2021/08/22 04:27:42;;;;;;;4.13;1.67;;;;;;;;;;5016531;28;20041;-56
2021/08/22 04:30:09;;;;;;;3.90;1.73;;;;;;;;;;5020024;28;20037;-57
2021/08/22 04:32:35;;;;;;;4.78;1.70;;;;;;;;;;5019164;28;20042;-55
2021/08/22 04:35:01;;;;;;;3.90;1.70;;;;;;;;;;5019109;28;20060;-56
2021/08/22 04:37:27;;;;;;;3.90;1.50;;;;;;;;;;5019454;28;20041;-54
2021/08/22 04:39:55;;;;;;;5.22;1.90;;;;;;;;;;5019441;28;20048;-55
2021/08/22 04:42:21;;;;;;;5.78;1.80;;;;;;;;;;5017991;28;20080;-56
2021/08/22 04:44:47;;;;;;;4.03;1.70;;;;;;;;;;5019843;28;20498;-56
2021/08/22 04:47:13;;;;;;;6.45;1.85;;;;;;;;;;5017734;28;20041;-57
2021/08/22 04:49:39;;;;;;;4.55;1.40;;;;;;;;;;5016979;28;20435;-55
2021/08/22 04:52:05;;;;;;;6.20;1.60;;;;;;;;;;5018463;28;20049;-54
2021/08/22 04:54:30;;;;;;;5.13;1.52;;;;;;;;;;5017994;28;20041;-55
2021/08/22 04:56:56;;;;;;;4.90;1.63;;;;;;;;;;5018010;28;20467;-56
2021/08/22 04:59:22;;;;;;;5.45;1.88;;;;;;;;;;5018637;28;20490;-55
2021/08/22 05:01:48;;;;;;;7.82;2.40;;;;;;;;;;5018991;28;20042;-57
2021/08/22 05:04:14;;;;;;;5.53;2.05;;;;;;;;;;5018880;28;20056;-57
2021/08/22 05:06:39;;;;;;;4.90;2.05;;;;;;;;;;5018023;28;20406;-57
2021/08/22 05:09:05;;;;;;;4.70;2.10;;;;;;;;;;5018735;28;20920;-57
2021/08/22 05:11:32;;;;;;;5.35;1.95;;;;;;;;;;5016433;28;20045;-55
2021/08/22 05:13:58;;;;;;;4.78;1.98;;;;;;;;;;5017792;28;20037;-57
2021/08/22 05:16:24;;;;;;;7.60;2.22;;;;;;;;;;5018151;28;20033;-56
2021/08/22 05:18:50;;;;;;;7.00;2.40;;;;;;;;;;5018189;28;20041;-56
2021/08/22 05:21:16;;;;;;;6.28;2.38;;;;;;;;;;5018681;28;20107;-57
2021/08/22 05:23:41;;;;;;;9.02;2.53;;;;;;;;;;5018719;28;20046;-56
2021/08/22 05:26:07;;;;;;;7.00;2.30;;;;;;;;;;5018114;28;20055;-55
2021/08/22 05:28:33;;;;;;;7.32;2.05;;;;;;;;;;5016549;28;20692;-57
2021/08/22 05:30:59;;;;;;;7.32;2.47;;;;;;;;;;5018614;28;20508;-57
2021/08/22 05:33:24;;;;;;;5.70;2.05;;;;;;;;;;5016737;28;20045;-55
2021/08/22 05:35:50;;;;;;;5.43;2.05;;;;;;;;;;5017649;28;20049;-55
2021/08/22 05:38:16;;;;;;;5.38;2.35;;;;;;;;;;5017226;28;20036;-57
2021/08/22 05:40:42;;;;;;;4.95;2.10;;;;;;;;;;5017610;28;20360;-57
2021/08/22 05:43:08;;;;;;;6.28;2.25;;;;;;;;;;5018781;28;20033;-55
2021/08/22 05:45:33;;;;;;;8.73;2.85;;;;;;;;;;5017081;28;20053;-53
2021/08/22 05:47:59;;;;;;;6.70;2.33;;;;;;;;;;5018378;28;20451;-57
2021/08/22 05:50:25;;;;;;;4.85;2.15;;;;;;;;;;5016662;28;20916;-54
2021/08/22 05:52:51;;;;;;;5.97;2.50;;;;;;;;;;5017682;28;20041;-55
2021/08/22 05:55:17;;;;;;;9.63;2.13;;;;;;;;;;5018704;28;20041;-55
2021/08/22 05:57:43;;;;;;;9.02;2.63;;;;;;;;;;4996838;28;20045;-56
2021/08/22 06:00:11;;;;;;;4.57;2.28;;;;;;;;;;4996202;28;20042;-57
2021/08/22 06:02:37;;;;;;;4.88;2.10;;;;;;;;;;4998761;28;20077;-56
2021/08/22 06:05:04;;;;;;;5.85;2.47;;;;;;;;;;5006885;28;20136;-56
2021/08/22 06:07:30;;;;;;;5.22;2.20;;;;;;;;;;5017703;28;20037;-56
2021/08/22 06:09:57;;;;;;;5.50;2.45;;;;;;;;;;5017607;28;20090;-57
2021/08/22 06:12:23;;;;;;;6.10;2.45;;;;;;;;;;5017820;28;20033;-57
2021/08/22 06:14:49;;;;;;;5.88;2.50;;;;;;;;;;5018076;28;20064;-57
2021/08/22 06:17:15;;;;;;;5.32;2.25;;;;;;;;;;5017021;28;20144;-55
2021/08/22 06:19:41;;;;;;;6.05;2.90;;;;;;;;;;5016578;28;20374;-57
2021/08/22 06:22:06;;;;;;;6.00;2.78;;;;;;;;;;5017645;28;20052;-55
2021/08/22 06:24:32;;;;;;;7.93;2.90;;;;;;;;;;5017429;28;20033;-53
2021/08/22 06:26:59;;;;;;;5.43;2.75;;;;;;;;;;5016507;28;20049;-56
2021/08/22 06:29:24;;;;;;;7.70;3.10;;;;;;;;;;5016934;28;21050;-56
2021/08/22 06:31:51;;;;;;;8.77;3.75;;;;;;;;;;5016035;28;20255;-57
2021/08/22 06:34:17;;;;;;;8.02;3.78;;;;;;;;;;5017418;28;20029;-53
2021/08/22 06:36:43;;;;;;;6.78;3.78;;;;;;;;;;4999521;28;20052;-56
2021/08/22 06:39:09;;;;;;;7.30;3.97;;;;;;;;;;4998755;28;20079;-58
2021/08/22 06:41:35;;;;;;;9.15;4.03;;;;;;;;;;4995908;28;20042;-53
2021/08/22 06:44:02;;;;;;;7.82;3.75;;;;;;;;;;5007315;28;20140;-55
2021/08/22 06:46:28;;;;;;;8.15;3.90;;;;;;;;;;4992770;28;20042;-55
2021/08/22 06:48:54;;;;;;;9.68;4.05;;;;;;;;;;4999221;28;20730;-54
2021/08/22 06:51:19;;;;;;;8.95;4.43;;;;;;;;;;4991739;28;20038;-54
2021/08/22 06:53:46;;;;;;;8.93;4.25;;;;;;;;;;4998309;28;20061;-54
2021/08/22 06:56:12;;;;;;;7.93;4.30;;;;;;;;;;5002392;28;20471;-54
2021/08/22 06:58:38;;;;;;;8.88;4.30;;;;;;;;;;4999314;28;20111;-54
2021/08/22 07:01:06;;;;;;;9.10;4.47;;;;;;;;;;4995629;28;20037;-55
2021/08/22 07:03:32;;;;;;;8.13;4.32;;;;;;;;;;5011490;28;20041;-55
2021/08/22 07:05:58;;;;;;;10.57;4.22;;;;;;;;;;4998972;28;20071;-54
2021/08/22 07:08:24;;;;;;;6.82;3.95;;;;;;;;;;5014579;28;20041;-55
2021/08/22 07:10:50;;;;;;;8.43;4.50;;;;;;;;;;5016801;28;20038;-55
2021/08/22 07:13:16;;;;;;;8.38;3.90;;;;;;;;;;5017099;28;20619;-56
2021/08/22 07:15:41;;;;;;;8.73;4.00;;;;;;;;;;5014736;28;20065;-55
2021/08/22 07:18:07;;;;;;;6.82;3.67;;;;;;;;;;5015866;28;20041;-54
2021/08/22 07:20:33;;;;;;;11.23;4.30;;;;;;;;;;5014020;28;20069;-54
2021/08/22 07:22:59;;;;;;;7.53;3.78;;;;;;;;;;5016277;28;20037;-56
2021/08/22 07:25:25;;;;;;;12.25;4.78;;;;;;;;;;5015821;28;20058;-54
2021/08/22 07:27:50;;;;;;;8.40;3.88;;;;;;;;;;5015467;28;20029;-52
2021/08/22 07:30:16;;;;;;;7.20;3.33;;;;;;;;;;5016184;28;20422;-55
2021/08/22 07:32:42;;;;;;;9.30;4.13;;;;;;;;;;5015019;28;20063;-53
2021/08/22 07:35:08;;;;;;;8.43;3.95;;;;;;;;;;5016531;28;20463;-56
2021/08/22 07:37:34;;;;;;;7.18;3.60;;;;;;;;;;5014966;28;20492;-54
2021/08/22 07:40:00;;;;;;;6.53;3.33;;;;;;;;;;5015979;28;20042;-56
2021/08/22 07:42:26;;;;;;;7.80;3.67;;;;;;;;;;5015421;28;20788;-56
2021/08/22 07:44:52;;;;;;;6.03;3.35;;;;;;;;;;5014980;28;20041;-52
2021/08/22 07:47:17;;;;;;;7.72;3.65;;;;;;;;;;5010966;28;20095;-52
2021/08/22 07:49:43;;;;;;;7.55;3.50;;;;;;;;;;4993876;28;20730;-56
2021/08/22 07:52:09;;;;;;;8.38;3.97;;;;;;;;;;5004428;28;20201;-55
2021/08/22 07:54:35;;;;;;;10.43;3.72;;;;;;;;;;4994979;28;20038;-53
2021/08/22 07:57:01;;;;;;;7.85;3.63;;;;;;;;;;4991139;28;20425;-54
2021/08/22 07:59:26;;;;;;;10.15;3.80;;;;;;;;;;5003335;28;20509;-56
2021/08/22 08:01:52;;;;;;;8.25;3.88;;;;;;;;;;4994050;28;20042;-53
2021/08/22 08:04:18;;;;;;;8.40;3.70;;;;;;;;;;4999230;28;20129;-52
2021/08/22 08:06:44;;;;;;;7.20;3.38;;;;;;;;;;4997728;28;20053;-55
2021/08/22 08:09:10;;;;;;;6.65;3.53;;;;;;;;;;4992805;28;20540;-52
2021/08/22 08:11:35;;;;;;;8.82;3.85;;;;;;;;;;5004871;28;20081;-55
2021/08/22 08:14:01;;;;;;;8.07;3.70;;;;;;;;;;4995013;28;20049;-56
2021/08/22 08:16:27;;;;;;;8.05;3.20;;;;;;;;;;4995193;28;20046;-56
2021/08/22 08:18:53;;;;;;;6.60;3.53;;;;;;;;;;4994652;28;20046;-55
2021/08/22 08:21:19;;;;;;;8.65;3.63;;;;;;;;;;4995146;28;20045;-56
2021/08/22 08:23:44;;;;;;;6.95;3.38;;;;;;;;;;4992899;28;20042;-56
2021/08/22 08:26:10;;;;;;;8.40;3.47;;;;;;;;;;4994243;28;20089;-56
2021/08/22 08:28:36;;;;;;;10.55;3.47;;;;;;;;;;5012900;28;20053;-53
2021/08/22 08:31:02;;;;;;;6.78;3.28;;;;;;;;;;5014740;28;20041;-55
2021/08/22 08:33:28;;;;;;;7.57;3.45;;;;;;;;;;5014783;28;21058;-55
2021/08/22 08:35:54;;;;;;;6.78;3.17;;;;;;;;;;5014707;28;20077;-55
2021/08/22 08:38:20;;;;;;;6.85;3.17;;;;;;;;;;5014031;28;20041;-56
2021/08/22 08:40:46;;;;;;;10.35;3.53;;;;;;;;;;5015758;28;20737;-53
2021/08/22 08:43:12;;;;;;;8.43;3.30;;;;;;;;;;5015421;28;20397;-52
2021/08/22 08:45:50;;;;;;;7.60;3.47;;;;;;;;;;5015161;28;20143;-55
2021/08/22 08:48:34;;;;;;;5.85;2.88;;;;;;;;;;5012988;28;20570;-55
2021/08/22 08:51:39;;;;;;;6.50;2.92;;;;;;;;;;4991766;28;20034;-55
2021/08/22 08:54:30;;;;;;;6.13;3.10;;;;;;;;;;4976563;28;20137;-56
2021/08/22 08:56:57;;;;;;;6.25;3.10;;;;;;;;;;4982298;28;20034;-54
2021/08/22 08:59:23;;;;;;;8.55;3.35;;;;;;;;;;4996266;28;20037;-55
2021/08/22 09:01:48;;;;;;;5.78;2.97;;;;;;;;;;4991234;28;20451;-54
2021/08/22 09:04:26;;;;;;;5.40;2.70;;;;;;;;;;4990649;28;20034;-55
2021/08/22 09:07:11;;;;;;;7.50;3.25;;;;;;;;;;5013386;28;20060;-56
2021/08/22 09:09:55;;;;;;;7.38;2.78;;;;;;;;;;5014308;28;20046;-53
2021/08/22 09:12:23;;;;;;;7.57;3.13;;;;;;;;;;5013816;28;20037;-54
2021/08/22 09:15:07;;;;;;;6.25;2.90;;;;;;;;;;5018338;28;20037;-55
2021/08/22 09:17:52;;;;;;;6.20;2.90;;;;;;;;;;5017914;28;20053;-53
2021/08/22 09:20:37;;;;;;;6.75;2.85;;;;;;;;;;5018024;28;20042;-55
2021/08/22 09:23:21;;;;;;;5.32;2.58;;;;;;;;;;5017085;28;20057;-53
2021/08/22 09:26:05;;;;;;;6.60;2.75;;;;;;;;;;5017946;28;20075;-55
2021/08/22 09:28:49;;;;;;;6.13;2.80;;;;;;;;;;5004280;28;20137;-53
2021/08/22 09:31:34;;;;;;;6.53;2.50;;;;;;;;;;4997990;28;20448;-56
2021/08/22 09:34:18;;;;;;;6.10;2.70;;;;;;;;;;4998619;28;20041;-55
2021/08/22 09:37:02;;;;;;;5.28;2.70;;;;;;;;;;4990862;28;20056;-56
2021/08/22 09:39:28;;;;;;;7.03;2.85;;;;;;;;;;5006373;28;20057;-56
2021/08/22 09:42:13;;;;;;;6.88;3.00;;;;;;;;;;5017601;28;20041;-56
2021/08/22 09:44:49;;;;;;;6.93;2.78;;;;;;;;;;4995695;28;20045;-56
2021/08/22 09:47:41;;;;;;;5.38;3.00;;;;;;;;;;4992627;28;20050;-56
2021/08/22 09:50:21;;;;;;;6.15;2.70;;;;;;;;;;5005413;28;20054;-55
2021/08/22 09:53:05;;;;;;;6.45;3.25;;;;;;;;;;4997011;28;20067;-55
2021/08/22 09:55:46;;;;;;;7.65;3.17;;;;;;;;;;5004376;28;20057;-54
2021/08/22 09:58:30;;;;;;;6.40;3.30;;;;;;;;;;4994692;28;20100;-54
2021/08/22 10:00:59;;;;;;;6.28;3.50;;;;;;;;;;4996403;28;20512;-55
2021/08/22 10:03:44;;;;;;;9.18;3.58;;;;;;;;;;5012951;28;20990;-52
2021/08/22 10:06:22;;;;;;;6.00;2.70;;;;;;;;;;5016470;28;20688;-52
2021/08/22 10:08:48;;;;;;;6.22;2.90;;;;;;;;;;4993476;28;20038;-55
2021/08/22 10:11:18;;;;;;;7.43;3.50;;;;;;;;;;4993390;28;21087;-56
2021/08/22 10:13:44;;;;;;;6.03;3.28;;;;;;;;;;4992827;28;20075;-56
2021/08/22 10:16:10;;;;;;;8.00;3.42;;;;;;;;;;4995251;28;20735;-56
2021/08/22 10:18:36;;;;;;;5.75;3.15;;;;;;;;;;5001425;28;20057;-56
2021/08/22 10:21:03;;;;;;;5.70;3.17;;;;;;;;;;4997523;28;20641;-54
2021/08/22 10:23:32;;;;;;;7.60;3.38;;;;;;;;;;5000633;28;20045;-56
2021/08/22 10:25:58;;;;;;;6.40;3.25;;;;;;;;;;5014232;28;20053;-54
2021/08/22 10:28:42;;;;;;;6.65;3.28;;;;;;;;;;5014445;28;20046;-55
2021/08/22 10:31:08;;;;;;;6.43;3.20;;;;;;;;;;5015049;28;20040;-56
2021/08/22 10:33:34;;;;;;;7.13;3.28;;;;;;;;;;5016070;28;20065;-56
2021/08/22 10:36:26;;;;;;;8.52;3.13;;;;;;;;;;5014986;28;20046;-55
2021/08/22 10:39:03;;;;;;;7.82;3.20;;;;;;;;;;4989190;28;20045;-56
2021/08/22 10:41:33;;;;;;;6.65;3.13;;;;;;;;;;4987017;28;20407;-53
2021/08/22 10:43:59;;;;;;;7.68;3.60;;;;;;;;;;4987736;28;20046;-52
2021/08/22 10:46:45;;;;;;;6.60;3.25;;;;;;;;;;4987119;28;20069;-56
2021/08/22 10:49:11;;;;;;;9.52;3.50;;;;;;;;;;4987357;28;20164;-53
2021/08/22 10:51:37;;;;;;;6.78;3.28;;;;;;;;;;5013782;28;20132;-56
2021/08/22 10:54:16;;;;;;;9.52;4.10;;;;;;;;;;5014247;28;20049;-53
2021/08/22 10:56:41;;;;;;;7.05;3.38;;;;;;;;;;5015106;28;20033;-53
2021/08/22 10:59:08;;;;;;;7.63;3.45;;;;;;;;;;5015413;28;20033;-55
2021/08/22 11:01:36;;;;;;;6.60;3.03;;;;;;;;;;5013738;28;20553;-57
2021/08/22 11:04:06;;;;;;;6.63;3.17;;;;;;;;;;5014897;28;20076;-56
2021/08/22 11:06:33;;;;;;;8.13;3.42;;;;;;;;;;5014104;28;20045;-57
2021/08/22 11:08:59;;;;;;;6.00;2.90;;;;;;;;;;5012303;28;20029;-54
2021/08/22 11:11:24;;;;;;;5.35;2.60;;;;;;;;;;5014695;28;20048;-55
2021/08/22 11:13:57;;;;;;;6.28;2.78;;;;;;;;;;5015285;28;20536;-55
2021/08/22 11:16:46;;;;;;;5.18;2.70;;;;;;;;;;5013939;28;20048;-55
2021/08/22 11:19:13;;;;;;;5.28;2.58;;;;;;;;;;5013975;28;20041;-56
2021/08/22 11:21:39;;;;;;;8.13;2.95;;;;;;;;;;5013279;28;20046;-54
2021/08/22 11:24:05;;;;;;;5.13;2.55;;;;;;;;;;5014816;28;20060;-55
2021/08/22 11:26:31;;;;;;;5.80;2.80;;;;;;;;;;5014984;28;20927;-54
2021/08/22 11:28:59;;;;;;;6.05;2.95;;;;;;;;;;5013868;28;20045;-55
2021/08/22 11:31:32;;;;;;;5.13;2.55;;;;;;;;;;5013758;28;20493;-55
2021/08/22 11:34:10;;;;;;;5.65;2.95;;;;;;;;;;5016027;28;20077;-54
2021/08/22 11:36:36;;;;;;;5.65;2.90;;;;;;;;;;5013375;28;20120;-55
2021/08/22 11:39:16;;;;;;;6.82;2.97;;;;;;;;;;5013809;28;20052;-55
2021/08/22 11:41:46;;;;;;;5.82;2.90;;;;;;;;;;5013938;28;20455;-54
2021/08/22 11:44:12;;;;;;;6.63;3.33;;;;;;;;;;5015269;28;20491;-55
2021/08/22 11:46:38;;;;;;;8.30;3.83;;;;;;;;;;5013483;28;20126;-55
2021/08/22 11:49:04;;;;;;;7.75;3.58;;;;;;;;;;5013944;28;20037;-57
2021/08/22 11:51:30;;;;;;;5.95;3.38;;;;;;;;;;5013858;28;20045;-56
2021/08/22 11:53:56;;;;;;;7.40;3.53;;;;;;;;;;5016816;28;20037;-56
2021/08/22 11:56:25;;;;;;;8.65;4.13;;;;;;;;;;5014644;28;20121;-55
2021/08/22 11:58:51;;;;;;;7.53;3.38;;;;;;;;;;4998413;28;21073;-56
2021/08/22 12:01:20;;;;;;;6.07;3.08;;;;;;;;;;4994634;28;20033;-54
2021/08/22 12:03:56;;;;;;;5.28;2.90;;;;;;;;;;4990755;28;20094;-53
2021/08/22 12:06:23;;;;;;;5.72;2.72;;;;;;;;;;4988977;28;20041;-56
2021/08/22 12:08:49;;;;;;;5.80;2.80;;;;;;;;;;4994636;28;20056;-56
2021/08/22 12:11:17;;;;;;;5.40;2.47;;;;;;;;;;5005988;28;20556;-55
2021/08/22 12:13:44;;;;;;;5.03;2.67;;;;;;;;;;4999412;28;20050;-57
2021/08/22 12:16:24;;;;;;;7.35;3.10;;;;;;;;;;5001995;28;20178;-53
2021/08/22 12:18:50;;;;;;;8.00;2.65;;;;;;;;;;5013695;28;20073;-55
2021/08/22 12:21:17;;;;;;;4.85;2.35;;;;;;;;;;4992631;28;20647;-56
2021/08/22 12:23:50;;;;;;;5.55;2.75;;;;;;;;;;4993762;28;20041;-56
2021/08/22 12:26:16;;;;;;;5.13;2.28;;;;;;;;;;5014832;28;20046;-52
2021/08/22 12:28:42;;;;;;;4.82;2.63;;;;;;;;;;5012909;28;20109;-56
2021/08/22 12:31:10;;;;;;;5.65;2.58;;;;;;;;;;5013909;28;20112;-57
2021/08/22 12:33:43;;;;;;;5.60;2.75;;;;;;;;;;5013162;28;20447;-55
2021/08/22 12:36:11;;;;;;;4.80;2.25;;;;;;;;;;5015064;28;20049;-56
2021/08/22 12:38:47;;;;;;;5.57;2.60;;;;;;;;;;5012853;28;20536;-57
2021/08/22 12:41:34;;;;;;;6.90;3.00;;;;;;;;;;5015250;28;20592;-58
2021/08/22 12:44:02;;;;;;;5.60;3.00;;;;;;;;;;5012620;28;20080;-56
2021/08/22 12:46:28;;;;;;;6.07;2.78;;;;;;;;;;5014321;28;20046;-57
2021/08/22 12:48:55;;;;;;;5.65;2.65;;;;;;;;;;5016280;28;20405;-55
2021/08/22 12:51:21;;;;;;;6.07;2.80;;;;;;;;;;5014972;28;20033;-56
2021/08/22 12:53:47;;;;;;;6.30;3.13;;;;;;;;;;5017932;28;20029;-56
2021/08/22 12:56:13;;;;;;;6.97;2.95;;;;;;;;;;5018546;28;20037;-57
2021/08/22 12:58:39;;;;;;;6.55;2.88;;;;;;;;;;5016600;28;20080;-56
2021/08/22 13:01:05;;;;;;;7.43;3.03;;;;;;;;;;5018200;28;20758;-57
2021/08/22 13:03:31;;;;;;;7.60;3.20;;;;;;;;;;5017257;28;20045;-57
2021/08/22 13:05:56;;;;;;;6.13;3.17;;;;;;;;;;5018251;28;20045;-57
2021/08/22 13:08:22;;;;;;;5.88;2.80;;;;;;;;;;5016032;28;20060;-57
2021/08/22 13:10:48;;;;;;;6.57;2.90;;;;;;;;;;5016638;28;20468;-58
2021/08/22 13:13:14;;;;;;;7.35;3.28;;;;;;;;;;5015918;28;20045;-57
2021/08/22 13:15:40;;;;;;;7.43;3.30;;;;;;;;;;5012292;28;20042;-57
2021/08/22 13:18:06;;;;;;;6.85;3.15;;;;;;;;;;4997440;28;20349;-57
2021/08/22 13:20:31;;;;;;;6.55;3.33;;;;;;;;;;5008869;28;20088;-56
2021/08/22 13:22:57;;;;;;;5.85;2.83;;;;;;;;;;5003554;28;20034;-58
2021/08/22 13:25:23;;;;;;;7.03;2.95;;;;;;;;;;4995802;28;20058;-57
2021/08/22 13:27:49;;;;;;;7.40;3.20;;;;;;;;;;4998872;28;20840;-57
2021/08/22 13:30:15;;;;;;;10.70;3.33;;;;;;;;;;4987468;28;20042;-54
2021/08/22 13:32:41;;;;;;;5.10;2.60;;;;;;;;;;4988604;28;20411;-58
2021/08/22 13:35:07;;;;;;;6.25;2.78;;;;;;;;;;4989694;28;20478;-58
2021/08/22 13:37:32;;;;;;;7.97;3.30;;;;;;;;;;4986818;28;20042;-56
2021/08/22 13:39:58;;;;;;;6.13;3.30;;;;;;;;;;4990322;28;20231;-56
2021/08/22 13:42:24;;;;;;;9.00;3.30;;;;;;;;;;4989201;28;20104;-58
2021/08/22 13:44:50;;;;;;;7.50;3.45;;;;;;;;;;5002987;28;20557;-57
2021/08/22 13:47:16;;;;;;;6.70;3.70;;;;;;;;;;4997917;28;20057;-57
2021/08/22 13:49:42;;;;;;;10.20;3.67;;;;;;;;;;5005636;28;20042;-57
2021/08/22 13:52:08;;;;;;;7.93;3.20;;;;;;;;;;5000239;28;20068;-57
2021/08/22 13:54:33;;;;;;;6.10;3.22;;;;;;;;;;5003723;28;20137;-58
2021/08/22 13:56:59;;;;;;;10.18;3.20;;;;;;;;;;4998853;28;20077;-57
2021/08/22 13:59:25;;;;;;;6.00;3.05;;;;;;;;;;5014402;28;20378;-55
2021/08/22 14:01:52;;;;;;;6.22;3.10;;;;;;;;;;4988370;28;20045;-57
2021/08/22 14:04:18;;;;;;;6.38;2.83;;;;;;;;;;5002200;28;20060;-52
2021/08/22 14:06:43;;;;;;;5.88;2.75;;;;;;;;;;4996453;28;20061;-54
2021/08/22 14:09:09;;;;;;;6.30;2.45;;;;;;;;;;5005253;28;20724;-57
2021/08/22 14:11:35;;;;;;;5.53;2.78;;;;;;;;;;5001570;28;20180;-55
2021/08/22 14:14:01;;;;;;;7.20;3.30;;;;;;;;;;5007106;28;20049;-52
2021/08/22 14:16:27;;;;;;;7.22;3.20;;;;;;;;;;5007216;28;20183;-54
2021/08/22 14:18:52;;;;;;;5.60;3.03;;;;;;;;;;5015182;28;20099;-53
2021/08/22 14:21:18;;;;;;;5.88;2.92;;;;;;;;;;5014300;28;20061;-55
2021/08/22 14:23:45;;;;;;;7.03;3.22;;;;;;;;;;5013839;28;20052;-54
2021/08/22 14:26:11;;;;;;;6.25;3.40;;;;;;;;;;5014976;28;20049;-56
2021/08/22 14:28:37;;;;;;;6.43;3.22;;;;;;;;;;5013228;28;20474;-56
2021/08/22 14:31:04;;;;;;;7.00;3.33;;;;;;;;;;5014660;28;20065;-56
2021/08/22 14:33:31;;;;;;;6.93;3.28;;;;;;;;;;5012802;28;20050;-55
2021/08/22 14:35:57;;;;;;;6.47;3.33;;;;;;;;;;5015326;28;20041;-53
2021/08/22 14:38:23;;;;;;;6.30;3.33;;;;;;;;;;5013174;28;20049;-54
2021/08/22 14:40:49;;;;;;;8.77;3.60;;;;;;;;;;5014824;28;20044;-58
2021/08/22 14:43:14;;;;;;;9.38;4.07;;;;;;;;;;5014680;28;20055;-56
2021/08/22 14:45:40;;;;;;;5.65;3.00;;;;;;;;;;5013784;28;20048;-56
2021/08/22 14:48:06;;;;;;;6.43;3.80;;;;;;;;;;5013817;28;20125;-56